Aérodrome :
LOGIN :

S'inscrire | Disclaimer

   EN    FR    IT 

 










Légende :    VFR   VFR Marginal   IFR   IFR Intensif   IFR Très Intensif
Visi : 
Plafond : 
>= 8 km
>= 3000ft
5 à 8 km
1000 à 3000 ft
1500m à 5 km
500 à 1000 ft
800 à 1500m
200 à 500 ft
< 800m
< 200 ft
Symboles :   Orages  Brouillard  Fortes neiges  Fortes précipitations  Vent > 20 kt
SIGMETs :   Divers  Orages  Givrage  Turbulence  Onde Orograph.  Cendres Volcan.







- Altitude de l'aérodrome : 142 ft
- Code IATA : FLR


LIRQ - Firenze Amerigo Vespucci

DERNIER METAR :
  • 241420Z VRB04KT 9999 FEW040 29/09 Q1014

METARs EXPIRÉS :
  • 241350Z 21004KT 150V300 9999 FEW040 29/08 Q1015
  • 241320Z 21005KT 160V290 9999 FEW040 28/08 Q1015
  • 241250Z VRB04KT CAVOK 27/06 Q1015
  • 241220Z VRB03KT CAVOK 27/07 Q1016
  • 241150Z 29004KT 240V330 CAVOK 27/08 Q1016

TAF TAF LIRQ
Valide du 24 à 12h jusqu'au 25 à 12h UTC


241100Z 2412/2512 22010KT CAVOK
BECMG 2416/2418 VRB05KT
Pas de NOTAMs connus pour ce terrain.
1 SIGMET publié pour la FIR Milano (LIMM) :
 
Orages fréquents
LIMM SIGMET 1 VALID 241330/241630 LIIP
LIMM MILANO FIR FRQ TS OBS WI N4550 E00704 - N4439 E00648 - N4359 E00726 - N4431 E00853 - N4550 E00704 TOP ABV FL310 STNR NC=



MET'MAP, la Météo Aéronautique d'un coup d'oeil ! - Copyright ORBIFLY Décembre 2007 - Disclaimer

ORBIFLY MET'MAP TEAM :

Programmation & Développement : Alexandra Zaïnal
Conception & Développement : Baudouin d'Aumeries
Co-Programmation & Développement : Marc-Olivier Méhu
Soutien technique & logistique : Manuel Goepfert

Contact : metmap@orbifly.com




SOURCES & CREDITS :

   NOAA